sensor_id;sensor_type;location;lat;lon;timestamp;P1;durP1;ratioP1;P2;durP2;ratioP2
61785;SDS011;47692;53.714;11.372;2023-04-09T00:00:19;29.10;;;15.30;;
61785;SDS011;47692;53.714;11.372;2023-04-09T00:02:45;37.78;;;16.63;;
61785;SDS011;47692;53.714;11.372;2023-04-09T00:05:10;31.52;;;15.50;;
61785;SDS011;47692;53.714;11.372;2023-04-09T00:07:35;33.10;;;16.05;;
61785;SDS011;47692;53.714;11.372;2023-04-09T00:10:00;38.78;;;17.05;;
61785;SDS011;47692;53.714;11.372;2023-04-09T00:12:26;33.33;;;17.20;;
61785;SDS011;47692;53.714;11.372;2023-04-09T00:14:51;32.65;;;16.10;;
61785;SDS011;47692;53.714;11.372;2023-04-09T00:17:16;36.35;;;16.23;;
61785;SDS011;47692;53.714;11.372;2023-04-09T00:19:42;34.65;;;15.25;;
61785;SDS011;47692;53.714;11.372;2023-04-09T00:22:07;33.88;;;15.88;;
61785;SDS011;47692;53.714;11.372;2023-04-09T00:24:32;41.35;;;19.02;;
61785;SDS011;47692;53.714;11.372;2023-04-09T00:26:58;36.38;;;16.80;;
61785;SDS011;47692;53.714;11.372;2023-04-09T00:29:23;32.13;;;18.67;;
61785;SDS011;47692;53.714;11.372;2023-04-09T00:31:48;39.00;;;16.92;;
61785;SDS011;47692;53.714;11.372;2023-04-09T00:34:14;31.35;;;15.45;;
61785;SDS011;47692;53.714;11.372;2023-04-09T00:36:39;33.83;;;17.25;;
61785;SDS011;47692;53.714;11.372;2023-04-09T00:39:05;34.78;;;15.85;;
61785;SDS011;47692;53.714;11.372;2023-04-09T00:41:30;34.70;;;19.15;;
61785;SDS011;47692;53.714;11.372;2023-04-09T00:43:55;39.30;;;19.85;;
61785;SDS011;47692;53.714;11.372;2023-04-09T00:46:21;35.33;;;17.67;;
61785;SDS011;47692;53.714;11.372;2023-04-09T00:48:46;30.20;;;17.77;;
61785;SDS011;47692;53.714;11.372;2023-04-09T00:51:12;32.17;;;16.63;;
61785;SDS011;47692;53.714;11.372;2023-04-09T00:53:37;27.42;;;15.38;;
61785;SDS011;47692;53.714;11.372;2023-04-09T00:56:02;31.15;;;15.50;;
61785;SDS011;47692;53.714;11.372;2023-04-09T00:58:28;32.03;;;16.40;;
61785;SDS011;47692;53.714;11.372;2023-04-09T01:00:54;26.75;;;14.95;;
61785;SDS011;47692;53.714;11.372;2023-04-09T01:03:19;25.63;;;14.13;;
61785;SDS011;47692;53.714;11.372;2023-04-09T01:05:49;28.38;;;15.00;;
61785;SDS011;47692;53.714;11.372;2023-04-09T01:08:29;26.35;;;14.45;;
61785;SDS011;47692;53.714;11.372;2023-04-09T01:13:38;27.90;;;15.35;;
61785;SDS011;47692;53.714;11.372;2023-04-09T01:16:09;24.40;;;13.85;;
61785;SDS011;47692;53.714;11.372;2023-04-09T01:18:43;26.92;;;13.85;;
61785;SDS011;47692;53.714;11.372;2023-04-09T01:21:24;23.88;;;13.93;;
61785;SDS011;47692;53.714;11.372;2023-04-09T01:29:30;26.50;;;14.45;;
61785;SDS011;47692;53.714;11.372;2023-04-09T01:31:57;28.13;;;14.73;;
61785;SDS011;47692;53.714;11.372;2023-04-09T01:34:25;20.88;;;13.00;;
61785;SDS011;47692;53.714;11.372;2023-04-09T01:36:54;23.05;;;13.73;;
61785;SDS011;47692;53.714;11.372;2023-04-09T01:39:21;26.10;;;13.90;;
61785;SDS011;47692;53.714;11.372;2023-04-09T01:41:48;23.38;;;13.77;;
61785;SDS011;47692;53.714;11.372;2023-04-09T01:44:14;21.83;;;12.75;;
61785;SDS011;47692;53.714;11.372;2023-04-09T01:46:41;25.77;;;14.80;;
61785;SDS011;47692;53.714;11.372;2023-04-09T01:49:08;27.35;;;14.35;;
61785;SDS011;47692;53.714;11.372;2023-04-09T01:51:34;28.60;;;14.98;;
61785;SDS011;47692;53.714;11.372;2023-04-09T01:54:01;20.17;;;12.32;;
61785;SDS011;47692;53.714;11.372;2023-04-09T01:56:27;23.90;;;13.90;;
61785;SDS011;47692;53.714;11.372;2023-04-09T01:59:03;23.38;;;13.90;;
61785;SDS011;47692;53.714;11.372;2023-04-09T02:01:31;24.90;;;13.95;;
61785;SDS011;47692;53.714;11.372;2023-04-09T02:06:49;27.63;;;13.48;;
61785;SDS011;47692;53.714;11.372;2023-04-09T02:09:29;25.77;;;14.27;;
61785;SDS011;47692;53.714;11.372;2023-04-09T02:12:00;24.85;;;14.45;;
61785;SDS011;47692;53.714;11.372;2023-04-09T02:14:30;28.55;;;14.48;;
61785;SDS011;47692;53.714;11.372;2023-04-09T02:16:58;25.95;;;14.38;;
61785;SDS011;47692;53.714;11.372;2023-04-09T02:19:24;27.35;;;13.68;;
61785;SDS011;47692;53.714;11.372;2023-04-09T02:21:49;24.73;;;13.70;;
61785;SDS011;47692;53.714;11.372;2023-04-09T02:24:14;26.17;;;14.38;;
61785;SDS011;47692;53.714;11.372;2023-04-09T02:26:40;23.88;;;13.35;;
61785;SDS011;47692;53.714;11.372;2023-04-09T02:29:05;22.83;;;13.30;;
61785;SDS011;47692;53.714;11.372;2023-04-09T02:31:30;26.52;;;14.27;;
61785;SDS011;47692;53.714;11.372;2023-04-09T02:33:56;27.85;;;14.25;;
61785;SDS011;47692;53.714;11.372;2023-04-09T02:36:21;25.75;;;13.98;;
61785;SDS011;47692;53.714;11.372;2023-04-09T02:38:46;31.08;;;14.65;;
61785;SDS011;47692;53.714;11.372;2023-04-09T02:41:11;30.30;;;15.68;;
61785;SDS011;47692;53.714;11.372;2023-04-09T02:43:37;29.35;;;15.38;;
61785;SDS011;47692;53.714;11.372;2023-04-09T02:46:02;31.13;;;16.85;;
61785;SDS011;47692;53.714;11.372;2023-04-09T02:48:28;28.38;;;15.50;;
61785;SDS011;47692;53.714;11.372;2023-04-09T02:50:53;29.33;;;15.45;;
61785;SDS011;47692;53.714;11.372;2023-04-09T02:53:18;27.48;;;16.15;;
61785;SDS011;47692;53.714;11.372;2023-04-09T02:55:45;34.40;;;15.98;;
61785;SDS011;47692;53.714;11.372;2023-04-09T02:58:11;29.38;;;14.95;;
61785;SDS011;47692;53.714;11.372;2023-04-09T03:00:36;29.30;;;16.23;;
61785;SDS011;47692;53.714;11.372;2023-04-09T03:03:01;27.42;;;15.60;;
61785;SDS011;47692;53.714;11.372;2023-04-09T03:05:27;25.50;;;14.80;;
61785;SDS011;47692;53.714;11.372;2023-04-09T03:07:52;29.23;;;14.95;;
61785;SDS011;47692;53.714;11.372;2023-04-09T03:10:18;28.52;;;15.07;;
61785;SDS011;47692;53.714;11.372;2023-04-09T03:12:43;26.92;;;14.23;;
61785;SDS011;47692;53.714;11.372;2023-04-09T03:15:09;26.00;;;13.77;;
61785;SDS011;47692;53.714;11.372;2023-04-09T03:17:35;23.75;;;13.13;;
61785;SDS011;47692;53.714;11.372;2023-04-09T03:20:00;24.63;;;13.80;;
61785;SDS011;47692;53.714;11.372;2023-04-09T03:22:25;25.13;;;14.02;;
61785;SDS011;47692;53.714;11.372;2023-04-09T03:24:50;22.85;;;12.40;;
61785;SDS011;47692;53.714;11.372;2023-04-09T03:27:16;22.77;;;13.80;;
61785;SDS011;47692;53.714;11.372;2023-04-09T03:29:41;21.77;;;13.43;;
61785;SDS011;47692;53.714;11.372;2023-04-09T03:32:06;22.90;;;13.77;;
61785;SDS011;47692;53.714;11.372;2023-04-09T03:34:32;25.50;;;13.70;;
61785;SDS011;47692;53.714;11.372;2023-04-09T03:36:57;24.80;;;13.80;;
61785;SDS011;47692;53.714;11.372;2023-04-09T03:39:22;27.35;;;15.30;;
61785;SDS011;47692;53.714;11.372;2023-04-09T03:41:47;23.80;;;13.52;;
61785;SDS011;47692;53.714;11.372;2023-04-09T03:44:13;28.77;;;14.43;;
61785;SDS011;47692;53.714;11.372;2023-04-09T03:46:38;26.63;;;13.88;;
61785;SDS011;47692;53.714;11.372;2023-04-09T03:49:03;26.40;;;13.77;;
61785;SDS011;47692;53.714;11.372;2023-04-09T03:51:29;23.60;;;13.45;;
61785;SDS011;47692;53.714;11.372;2023-04-09T03:53:54;25.92;;;13.70;;
61785;SDS011;47692;53.714;11.372;2023-04-09T03:56:19;24.08;;;14.30;;
61785;SDS011;47692;53.714;11.372;2023-04-09T03:58:45;22.85;;;13.98;;
61785;SDS011;47692;53.714;11.372;2023-04-09T04:01:12;27.42;;;13.73;;
61785;SDS011;47692;53.714;11.372;2023-04-09T04:03:37;28.58;;;16.30;;
61785;SDS011;47692;53.714;11.372;2023-04-09T04:06:02;24.73;;;14.10;;
61785;SDS011;47692;53.714;11.372;2023-04-09T04:08:28;25.92;;;14.80;;
61785;SDS011;47692;53.714;11.372;2023-04-09T04:10:54;25.52;;;15.10;;
61785;SDS011;47692;53.714;11.372;2023-04-09T04:13:20;30.48;;;16.13;;
61785;SDS011;47692;53.714;11.372;2023-04-09T04:15:45;34.17;;;17.40;;
61785;SDS011;47692;53.714;11.372;2023-04-09T04:18:10;30.27;;;16.63;;
61785;SDS011;47692;53.714;11.372;2023-04-09T04:20:36;31.63;;;16.08;;
61785;SDS011;47692;53.714;11.372;2023-04-09T04:23:02;29.67;;;16.08;;
61785;SDS011;47692;53.714;11.372;2023-04-09T04:25:28;30.10;;;15.90;;
61785;SDS011;47692;53.714;11.372;2023-04-09T04:27:54;28.95;;;15.85;;
61785;SDS011;47692;53.714;11.372;2023-04-09T04:30:20;27.05;;;15.55;;
61785;SDS011;47692;53.714;11.372;2023-04-09T04:32:46;26.55;;;15.13;;
61785;SDS011;47692;53.714;11.372;2023-04-09T04:35:12;26.17;;;14.52;;
61785;SDS011;47692;53.714;11.372;2023-04-09T04:37:37;26.63;;;14.02;;
61785;SDS011;47692;53.714;11.372;2023-04-09T04:40:04;27.83;;;14.45;;
61785;SDS011;47692;53.714;11.372;2023-04-09T04:42:30;30.80;;;15.32;;
61785;SDS011;47692;53.714;11.372;2023-04-09T04:44:56;32.03;;;16.70;;
61785;SDS011;47692;53.714;11.372;2023-04-09T04:47:21;25.75;;;14.60;;
61785;SDS011;47692;53.714;11.372;2023-04-09T04:49:46;24.38;;;14.98;;
61785;SDS011;47692;53.714;11.372;2023-04-09T04:52:12;26.70;;;16.13;;
61785;SDS011;47692;53.714;11.372;2023-04-09T04:54:37;35.05;;;17.02;;
61785;SDS011;47692;53.714;11.372;2023-04-09T04:57:02;27.70;;;15.10;;
61785;SDS011;47692;53.714;11.372;2023-04-09T04:59:28;27.88;;;14.85;;
61785;SDS011;47692;53.714;11.372;2023-04-09T05:01:53;24.70;;;14.18;;
61785;SDS011;47692;53.714;11.372;2023-04-09T05:04:19;30.30;;;16.13;;
61785;SDS011;47692;53.714;11.372;2023-04-09T05:06:44;27.27;;;14.35;;
61785;SDS011;47692;53.714;11.372;2023-04-09T05:09:09;30.52;;;15.07;;
61785;SDS011;47692;53.714;11.372;2023-04-09T05:11:34;28.50;;;15.55;;
61785;SDS011;47692;53.714;11.372;2023-04-09T05:14:00;28.98;;;15.57;;
61785;SDS011;47692;53.714;11.372;2023-04-09T05:16:25;29.58;;;15.50;;
61785;SDS011;47692;53.714;11.372;2023-04-09T05:18:51;27.02;;;15.55;;
61785;SDS011;47692;53.714;11.372;2023-04-09T05:21:16;26.65;;;15.25;;
61785;SDS011;47692;53.714;11.372;2023-04-09T05:23:41;25.05;;;13.80;;
61785;SDS011;47692;53.714;11.372;2023-04-09T05:26:07;25.42;;;14.45;;
61785;SDS011;47692;53.714;11.372;2023-04-09T05:28:32;26.27;;;13.60;;
61785;SDS011;47692;53.714;11.372;2023-04-09T05:30:58;26.92;;;13.40;;
61785;SDS011;47692;53.714;11.372;2023-04-09T05:33:23;19.92;;;11.77;;
61785;SDS011;47692;53.714;11.372;2023-04-09T05:35:48;22.42;;;12.27;;
61785;SDS011;47692;53.714;11.372;2023-04-09T05:38:14;25.92;;;12.50;;
61785;SDS011;47692;53.714;11.372;2023-04-09T05:40:39;21.20;;;12.68;;
61785;SDS011;47692;53.714;11.372;2023-04-09T05:43:06;23.30;;;13.23;;
61785;SDS011;47692;53.714;11.372;2023-04-09T05:45:31;23.23;;;12.75;;
61785;SDS011;47692;53.714;11.372;2023-04-09T05:47:56;24.10;;;12.55;;
61785;SDS011;47692;53.714;11.372;2023-04-09T05:50:22;26.52;;;12.77;;
61785;SDS011;47692;53.714;11.372;2023-04-09T05:52:47;20.13;;;11.95;;
61785;SDS011;47692;53.714;11.372;2023-04-09T05:55:12;24.38;;;13.20;;
61785;SDS011;47692;53.714;11.372;2023-04-09T05:57:38;22.55;;;12.70;;
61785;SDS011;47692;53.714;11.372;2023-04-09T06:00:03;25.00;;;12.57;;
61785;SDS011;47692;53.714;11.372;2023-04-09T06:02:30;22.83;;;11.77;;
61785;SDS011;47692;53.714;11.372;2023-04-09T06:04:55;20.58;;;12.35;;
61785;SDS011;47692;53.714;11.372;2023-04-09T06:07:20;23.83;;;14.88;;
61785;SDS011;47692;53.714;11.372;2023-04-09T06:09:46;28.85;;;12.70;;
61785;SDS011;47692;53.714;11.372;2023-04-09T06:12:11;20.88;;;11.63;;
61785;SDS011;47692;53.714;11.372;2023-04-09T06:14:37;22.38;;;12.45;;
61785;SDS011;47692;53.714;11.372;2023-04-09T06:17:03;21.13;;;12.27;;
61785;SDS011;47692;53.714;11.372;2023-04-09T06:19:28;27.05;;;13.80;;
61785;SDS011;47692;53.714;11.372;2023-04-09T06:21:53;27.88;;;13.80;;
61785;SDS011;47692;53.714;11.372;2023-04-09T06:24:19;25.60;;;12.55;;
61785;SDS011;47692;53.714;11.372;2023-04-09T06:26:44;23.90;;;13.05;;
61785;SDS011;47692;53.714;11.372;2023-04-09T06:29:10;23.13;;;12.50;;
61785;SDS011;47692;53.714;11.372;2023-04-09T06:31:35;28.05;;;14.27;;
61785;SDS011;47692;53.714;11.372;2023-04-09T06:34:00;31.15;;;13.70;;
61785;SDS011;47692;53.714;11.372;2023-04-09T06:36:26;31.20;;;14.25;;
61785;SDS011;47692;53.714;11.372;2023-04-09T06:38:52;30.05;;;14.10;;
61785;SDS011;47692;53.714;11.372;2023-04-09T06:41:21;30.13;;;13.80;;
61785;SDS011;47692;53.714;11.372;2023-04-09T06:43:47;33.20;;;12.88;;
61785;SDS011;47692;53.714;11.372;2023-04-09T06:46:13;36.85;;;14.43;;
61785;SDS011;47692;53.714;11.372;2023-04-09T06:48:41;30.33;;;13.38;;
61785;SDS011;47692;53.714;11.372;2023-04-09T06:51:08;25.38;;;12.77;;
61785;SDS011;47692;53.714;11.372;2023-04-09T06:53:34;27.25;;;13.65;;
61785;SDS011;47692;53.714;11.372;2023-04-09T06:55:59;34.10;;;13.80;;
61785;SDS011;47692;53.714;11.372;2023-04-09T06:58:25;32.60;;;14.10;;
61785;SDS011;47692;53.714;11.372;2023-04-09T07:00:50;28.70;;;13.50;;
61785;SDS011;47692;53.714;11.372;2023-04-09T07:03:16;37.13;;;14.52;;
61785;SDS011;47692;53.714;11.372;2023-04-09T07:05:41;33.60;;;13.85;;
61785;SDS011;47692;53.714;11.372;2023-04-09T07:08:06;32.95;;;14.02;;
61785;SDS011;47692;53.714;11.372;2023-04-09T07:10:32;33.90;;;13.68;;
61785;SDS011;47692;53.714;11.372;2023-04-09T07:12:57;31.33;;;14.35;;
61785;SDS011;47692;53.714;11.372;2023-04-09T07:15:22;34.78;;;14.57;;
61785;SDS011;47692;53.714;11.372;2023-04-09T07:17:48;30.67;;;14.10;;
61785;SDS011;47692;53.714;11.372;2023-04-09T07:20:13;35.08;;;14.73;;
61785;SDS011;47692;53.714;11.372;2023-04-09T07:22:38;31.80;;;14.38;;
61785;SDS011;47692;53.714;11.372;2023-04-09T07:25:04;44.08;;;15.13;;
61785;SDS011;47692;53.714;11.372;2023-04-09T07:27:30;35.65;;;13.95;;
61785;SDS011;47692;53.714;11.372;2023-04-09T07:29:55;34.60;;;14.27;;
61785;SDS011;47692;53.714;11.372;2023-04-09T07:32:22;33.85;;;15.23;;
61785;SDS011;47692;53.714;11.372;2023-04-09T07:34:51;38.13;;;15.02;;
61785;SDS011;47692;53.714;11.372;2023-04-09T07:37:17;30.92;;;14.57;;
61785;SDS011;47692;53.714;11.372;2023-04-09T07:39:43;34.58;;;15.30;;
61785;SDS011;47692;53.714;11.372;2023-04-09T07:42:08;37.10;;;15.73;;
61785;SDS011;47692;53.714;11.372;2023-04-09T07:44:34;38.05;;;15.70;;
61785;SDS011;47692;53.714;11.372;2023-04-09T07:47:00;36.63;;;15.93;;
61785;SDS011;47692;53.714;11.372;2023-04-09T07:49:26;37.10;;;15.63;;
61785;SDS011;47692;53.714;11.372;2023-04-09T07:51:52;36.95;;;15.68;;
61785;SDS011;47692;53.714;11.372;2023-04-09T07:54:17;30.60;;;15.20;;
61785;SDS011;47692;53.714;11.372;2023-04-09T07:56:45;37.60;;;15.68;;
61785;SDS011;47692;53.714;11.372;2023-04-09T07:59:10;33.25;;;15.70;;
61785;SDS011;47692;53.714;11.372;2023-04-09T08:01:35;30.20;;;14.80;;
61785;SDS011;47692;53.714;11.372;2023-04-09T08:04:01;30.60;;;14.93;;
61785;SDS011;47692;53.714;11.372;2023-04-09T08:06:26;30.25;;;14.38;;
61785;SDS011;47692;53.714;11.372;2023-04-09T08:08:52;28.77;;;13.32;;
61785;SDS011;47692;53.714;11.372;2023-04-09T08:11:17;32.60;;;13.90;;
61785;SDS011;47692;53.714;11.372;2023-04-09T08:13:49;27.85;;;12.88;;
61785;SDS011;47692;53.714;11.372;2023-04-09T08:16:15;28.30;;;13.40;;
61785;SDS011;47692;53.714;11.372;2023-04-09T08:18:40;29.10;;;13.50;;
61785;SDS011;47692;53.714;11.372;2023-04-09T08:21:05;33.45;;;13.98;;
61785;SDS011;47692;53.714;11.372;2023-04-09T08:23:31;26.48;;;13.43;;
61785;SDS011;47692;53.714;11.372;2023-04-09T08:25:56;28.30;;;12.95;;
61785;SDS011;47692;53.714;11.372;2023-04-09T08:28:21;31.17;;;14.20;;
61785;SDS011;47692;53.714;11.372;2023-04-09T08:30:47;28.13;;;12.48;;
61785;SDS011;47692;53.714;11.372;2023-04-09T08:33:12;26.50;;;14.40;;
61785;SDS011;47692;53.714;11.372;2023-04-09T08:35:38;34.45;;;14.27;;
61785;SDS011;47692;53.714;11.372;2023-04-09T08:38:05;24.38;;;12.93;;
61785;SDS011;47692;53.714;11.372;2023-04-09T08:40:34;28.65;;;13.68;;
61785;SDS011;47692;53.714;11.372;2023-04-09T08:43:00;35.17;;;14.25;;
61785;SDS011;47692;53.714;11.372;2023-04-09T08:45:29;25.75;;;12.48;;
61785;SDS011;47692;53.714;11.372;2023-04-09T08:47:55;28.88;;;13.30;;
61785;SDS011;47692;53.714;11.372;2023-04-09T08:50:23;26.83;;;13.73;;
61785;SDS011;47692;53.714;11.372;2023-04-09T08:52:49;28.25;;;13.98;;
61785;SDS011;47692;53.714;11.372;2023-04-09T08:55:15;36.20;;;14.35;;
61785;SDS011;47692;53.714;11.372;2023-04-09T08:57:40;31.88;;;13.68;;
61785;SDS011;47692;53.714;11.372;2023-04-09T09:00:06;25.33;;;12.38;;
61785;SDS011;47692;53.714;11.372;2023-04-09T09:02:33;27.02;;;12.73;;
61785;SDS011;47692;53.714;11.372;2023-04-09T09:04:58;28.77;;;12.73;;
61785;SDS011;47692;53.714;11.372;2023-04-09T09:07:26;32.80;;;13.90;;
61785;SDS011;47692;53.714;11.372;2023-04-09T09:09:54;31.15;;;16.23;;
61785;SDS011;47692;53.714;11.372;2023-04-09T09:12:30;31.17;;;14.32;;
61785;SDS011;47692;53.714;11.372;2023-04-09T09:14:57;31.13;;;14.52;;
61785;SDS011;47692;53.714;11.372;2023-04-09T09:17:23;35.40;;;15.98;;
61785;SDS011;47692;53.714;11.372;2023-04-09T09:19:48;30.38;;;14.13;;
61785;SDS011;47692;53.714;11.372;2023-04-09T09:22:13;30.88;;;14.45;;
61785;SDS011;47692;53.714;11.372;2023-04-09T09:24:49;26.20;;;12.23;;
61785;SDS011;47692;53.714;11.372;2023-04-09T09:27:35;32.70;;;13.73;;
61785;SDS011;47692;53.714;11.372;2023-04-09T09:30:03;27.75;;;15.00;;
61785;SDS011;47692;53.714;11.372;2023-04-09T09:32:30;30.73;;;14.43;;
61785;SDS011;47692;53.714;11.372;2023-04-09T09:34:56;32.60;;;15.50;;
61785;SDS011;47692;53.714;11.372;2023-04-09T09:37:25;33.78;;;14.57;;
61785;SDS011;47692;53.714;11.372;2023-04-09T09:39:52;32.85;;;14.15;;
61785;SDS011;47692;53.714;11.372;2023-04-09T09:42:18;29.95;;;14.60;;
61785;SDS011;47692;53.714;11.372;2023-04-09T09:44:43;29.80;;;13.93;;
61785;SDS011;47692;53.714;11.372;2023-04-09T09:47:08;27.73;;;13.63;;
61785;SDS011;47692;53.714;11.372;2023-04-09T09:49:39;37.40;;;15.13;;
61785;SDS011;47692;53.714;11.372;2023-04-09T09:52:08;31.70;;;15.15;;
61785;SDS011;47692;53.714;11.372;2023-04-09T09:54:38;30.75;;;13.52;;
61785;SDS011;47692;53.714;11.372;2023-04-09T09:57:08;27.52;;;13.30;;
61785;SDS011;47692;53.714;11.372;2023-04-09T09:59:39;31.20;;;14.32;;
61785;SDS011;47692;53.714;11.372;2023-04-09T10:02:10;29.65;;;14.18;;
61785;SDS011;47692;53.714;11.372;2023-04-09T10:04:42;34.40;;;13.77;;
61785;SDS011;47692;53.714;11.372;2023-04-09T10:07:08;30.83;;;14.05;;
61785;SDS011;47692;53.714;11.372;2023-04-09T10:09:34;34.60;;;15.57;;
61785;SDS011;47692;53.714;11.372;2023-04-09T10:12:04;32.78;;;15.25;;
61785;SDS011;47692;53.714;11.372;2023-04-09T10:14:31;31.42;;;14.13;;
61785;SDS011;47692;53.714;11.372;2023-04-09T10:16:57;32.75;;;13.80;;
61785;SDS011;47692;53.714;11.372;2023-04-09T10:19:23;28.25;;;14.18;;
61785;SDS011;47692;53.714;11.372;2023-04-09T10:24:35;33.13;;;15.30;;
61785;SDS011;47692;53.714;11.372;2023-04-09T10:27:14;30.45;;;14.55;;
61785;SDS011;47692;53.714;11.372;2023-04-09T10:29:43;35.88;;;16.05;;
61785;SDS011;47692;53.714;11.372;2023-04-09T10:32:22;30.60;;;15.98;;
61785;SDS011;47692;53.714;11.372;2023-04-09T10:34:50;31.17;;;14.80;;
61785;SDS011;47692;53.714;11.372;2023-04-09T10:37:20;34.50;;;15.13;;
61785;SDS011;47692;53.714;11.372;2023-04-09T10:39:46;29.40;;;14.07;;
61785;SDS011;47692;53.714;11.372;2023-04-09T10:42:16;31.42;;;13.82;;
61785;SDS011;47692;53.714;11.372;2023-04-09T10:44:45;26.60;;;13.25;;
61785;SDS011;47692;53.714;11.372;2023-04-09T10:47:10;25.58;;;13.20;;
61785;SDS011;47692;53.714;11.372;2023-04-09T10:49:40;27.05;;;14.48;;
61785;SDS011;47692;53.714;11.372;2023-04-09T10:52:07;26.90;;;13.48;;
61785;SDS011;47692;53.714;11.372;2023-04-09T10:59:38;27.88;;;12.98;;
61785;SDS011;47692;53.714;11.372;2023-04-09T11:07:57;22.58;;;11.15;;
61785;SDS011;47692;53.714;11.372;2023-04-09T11:10:25;25.40;;;11.70;;
61785;SDS011;47692;53.714;11.372;2023-04-09T11:12:50;28.25;;;11.95;;
61785;SDS011;47692;53.714;11.372;2023-04-09T11:15:16;22.35;;;10.23;;
61785;SDS011;47692;53.714;11.372;2023-04-09T11:17:43;25.90;;;11.25;;
61785;SDS011;47692;53.714;11.372;2023-04-09T11:20:09;23.40;;;11.05;;
61785;SDS011;47692;53.714;11.372;2023-04-09T11:22:35;26.02;;;11.15;;
61785;SDS011;47692;53.714;11.372;2023-04-09T11:25:00;31.60;;;13.55;;
61785;SDS011;47692;53.714;11.372;2023-04-09T11:27:26;29.30;;;13.18;;
61785;SDS011;47692;53.714;11.372;2023-04-09T11:29:54;23.80;;;11.85;;
61785;SDS011;47692;53.714;11.372;2023-04-09T11:32:20;31.85;;;13.32;;
61785;SDS011;47692;53.714;11.372;2023-04-09T11:34:45;26.00;;;12.10;;
61785;SDS011;47692;53.714;11.372;2023-04-09T11:37:14;33.08;;;12.65;;
61785;SDS011;47692;53.714;11.372;2023-04-09T11:39:43;29.35;;;11.70;;
61785;SDS011;47692;53.714;11.372;2023-04-09T11:42:17;33.03;;;13.35;;
61785;SDS011;47692;53.714;11.372;2023-04-09T11:44:45;38.65;;;14.68;;
61785;SDS011;47692;53.714;11.372;2023-04-09T11:47:11;35.53;;;14.60;;
61785;SDS011;47692;53.714;11.372;2023-04-09T11:49:38;35.63;;;14.00;;
61785;SDS011;47692;53.714;11.372;2023-04-09T11:52:04;31.35;;;13.07;;
61785;SDS011;47692;53.714;11.372;2023-04-09T11:54:30;34.72;;;14.70;;
61785;SDS011;47692;53.714;11.372;2023-04-09T11:57:02;33.72;;;13.48;;
61785;SDS011;47692;53.714;11.372;2023-04-09T11:59:28;38.00;;;14.85;;
61785;SDS011;47692;53.714;11.372;2023-04-09T12:01:53;34.83;;;14.48;;
61785;SDS011;47692;53.714;11.372;2023-04-09T12:04:22;35.03;;;14.07;;
61785;SDS011;47692;53.714;11.372;2023-04-09T12:06:47;34.15;;;12.63;;
61785;SDS011;47692;53.714;11.372;2023-04-09T12:09:13;29.98;;;12.90;;
61785;SDS011;47692;53.714;11.372;2023-04-09T12:11:41;34.50;;;13.32;;
61785;SDS011;47692;53.714;11.372;2023-04-09T12:14:15;28.33;;;13.02;;
61785;SDS011;47692;53.714;11.372;2023-04-09T12:16:41;30.75;;;12.65;;
61785;SDS011;47692;53.714;11.372;2023-04-09T12:19:10;31.80;;;12.45;;
61785;SDS011;47692;53.714;11.372;2023-04-09T12:21:52;34.13;;;13.40;;
61785;SDS011;47692;53.714;11.372;2023-04-09T12:24:21;29.08;;;13.55;;
61785;SDS011;47692;53.714;11.372;2023-04-09T12:26:48;29.25;;;12.60;;
61785;SDS011;47692;53.714;11.372;2023-04-09T12:29:14;28.33;;;12.60;;
61785;SDS011;47692;53.714;11.372;2023-04-09T12:31:42;30.50;;;13.15;;
61785;SDS011;47692;53.714;11.372;2023-04-09T12:34:08;35.13;;;14.05;;
61785;SDS011;47692;53.714;11.372;2023-04-09T12:36:33;33.65;;;12.95;;
61785;SDS011;47692;53.714;11.372;2023-04-09T12:38:58;32.63;;;13.30;;
61785;SDS011;47692;53.714;11.372;2023-04-09T12:41:24;30.85;;;13.80;;
61785;SDS011;47692;53.714;11.372;2023-04-09T12:43:50;30.83;;;13.35;;
61785;SDS011;47692;53.714;11.372;2023-04-09T12:46:16;35.90;;;13.55;;
61785;SDS011;47692;53.714;11.372;2023-04-09T12:48:42;32.90;;;13.05;;
61785;SDS011;47692;53.714;11.372;2023-04-09T12:51:07;26.40;;;11.75;;
61785;SDS011;47692;53.714;11.372;2023-04-09T12:53:35;44.22;;;20.25;;
61785;SDS011;47692;53.714;11.372;2023-04-09T12:56:00;28.73;;;11.70;;
61785;SDS011;47692;53.714;11.372;2023-04-09T12:58:26;27.92;;;11.98;;
61785;SDS011;47692;53.714;11.372;2023-04-09T13:00:51;28.60;;;12.20;;
61785;SDS011;47692;53.714;11.372;2023-04-09T13:03:18;32.83;;;13.30;;
61785;SDS011;47692;53.714;11.372;2023-04-09T13:05:43;27.27;;;12.30;;
61785;SDS011;47692;53.714;11.372;2023-04-09T13:08:09;27.75;;;11.55;;
61785;SDS011;47692;53.714;11.372;2023-04-09T13:10:34;29.80;;;11.55;;
61785;SDS011;47692;53.714;11.372;2023-04-09T13:13:00;28.63;;;13.57;;
61785;SDS011;47692;53.714;11.372;2023-04-09T13:15:26;31.17;;;12.93;;
61785;SDS011;47692;53.714;11.372;2023-04-09T13:17:52;32.05;;;12.45;;
61785;SDS011;47692;53.714;11.372;2023-04-09T13:20:17;28.08;;;13.00;;
61785;SDS011;47692;53.714;11.372;2023-04-09T13:22:43;29.38;;;13.20;;
61785;SDS011;47692;53.714;11.372;2023-04-09T13:25:12;24.95;;;12.07;;
61785;SDS011;47692;53.714;11.372;2023-04-09T13:27:38;30.25;;;12.68;;
61785;SDS011;47692;53.714;11.372;2023-04-09T13:30:03;32.72;;;13.73;;
61785;SDS011;47692;53.714;11.372;2023-04-09T13:32:29;27.15;;;12.23;;
61785;SDS011;47692;53.714;11.372;2023-04-09T13:34:54;28.60;;;12.25;;
61785;SDS011;47692;53.714;11.372;2023-04-09T13:37:21;29.20;;;11.63;;
61785;SDS011;47692;53.714;11.372;2023-04-09T13:39:48;28.05;;;12.23;;
61785;SDS011;47692;53.714;11.372;2023-04-09T13:42:13;29.00;;;12.93;;
61785;SDS011;47692;53.714;11.372;2023-04-09T13:44:40;25.77;;;12.18;;
61785;SDS011;47692;53.714;11.372;2023-04-09T13:47:08;30.05;;;12.85;;
61785;SDS011;47692;53.714;11.372;2023-04-09T13:49:36;31.10;;;12.27;;
61785;SDS011;47692;53.714;11.372;2023-04-09T13:52:02;35.42;;;13.38;;
61785;SDS011;47692;53.714;11.372;2023-04-09T13:54:28;30.33;;;12.77;;
61785;SDS011;47692;53.714;11.372;2023-04-09T13:56:54;33.38;;;13.30;;
61785;SDS011;47692;53.714;11.372;2023-04-09T13:59:20;30.27;;;12.18;;
61785;SDS011;47692;53.714;11.372;2023-04-09T14:01:45;34.10;;;13.18;;
61785;SDS011;47692;53.714;11.372;2023-04-09T14:04:10;28.70;;;11.75;;
61785;SDS011;47692;53.714;11.372;2023-04-09T14:06:36;34.88;;;13.10;;
61785;SDS011;47692;53.714;11.372;2023-04-09T14:09:01;35.83;;;13.32;;
61785;SDS011;47692;53.714;11.372;2023-04-09T14:11:27;29.15;;;11.35;;
61785;SDS011;47692;53.714;11.372;2023-04-09T14:13:52;33.30;;;11.73;;
61785;SDS011;47692;53.714;11.372;2023-04-09T14:16:18;32.45;;;12.80;;
61785;SDS011;47692;53.714;11.372;2023-04-09T14:18:43;34.22;;;12.77;;
61785;SDS011;47692;53.714;11.372;2023-04-09T14:21:09;30.40;;;12.18;;
61785;SDS011;47692;53.714;11.372;2023-04-09T14:23:34;26.33;;;10.70;;
61785;SDS011;47692;53.714;11.372;2023-04-09T14:26:00;27.52;;;11.50;;
61785;SDS011;47692;53.714;11.372;2023-04-09T14:28:27;27.98;;;10.93;;